Flag for Spain

Past Weather in 28°03'25"N, 16°43'47"W, Spain — Yesterday and Last 2 Weeks

Currently: 81 °F. Passing clouds. (Weather station: Tenerife Sur, Spain). See more current weather

Past Weather in 28°03'25"N, 16°43'47"W — Graph

°F

28°03'25"N, 16°43'47"W Temperature Yesterday

Maximum temperature yesterday: 82 °F (at 1:30 pm)
Minimum temperature yesterday: 70 °F (at 5:30 am)
Average temperature yesterday: 76 °F

High & Low Weather Summary for the Past Weeks

 TemperatureHumidityPressure
High90 °F (Jul 20, 4:00 pm)89% (Jul 20, 12:30 am)30.09 "Hg (Jul 20, 12:30 am)
Low66 °F (Jul 18, 6:00 am)21% (Jul 20, 4:30 pm)29.92 "Hg (Jul 13, 1:00 am)
Average76 °F68%30.02 "Hg
* Reported Jul 9 6:00 pm — Jul 24 6:30 pm, 28°03'25"N, 16°43'47"W. Weather by CustomWeather, © 2024

Note: Actual official high and low records may vary slightly from our data, if they occured in-between our weather recording intervals... More about our weather records

28°03'25"N, 16°43'47"W Weather History for the Previous 24 Hours

Scroll right to see more
 ConditionsComfort  
Time TempWeatherWind HumidityBarometerVisibility
6:30 pm
Wed, Jul 24
81 °FPassing clouds.13 mph66%29.98 "HgN/A
6:00 pm88 °FPassing clouds.13 mph35%29.98 "HgN/A
5:30 pm86 °FPassing clouds.13 mph46%30.01 "HgN/A
5:00 pm82 °FPassing clouds.9 mph58%30.01 "HgN/A
3:30 pm82 °FPassing clouds.9 mph62%30.04 "HgN/A
3:00 pm82 °FPassing clouds.9 mph66%30.04 "HgN/A
2:30 pm82 °FSunny.12 mph66%30.04 "Hg10 mi
2:00 pm82 °FPassing clouds.14 mph62%30.04 "HgN/A
1:30 pm82 °FSunny.17 mph62%30.04 "Hg10 mi
1:00 pm81 °FPassing clouds.18 mph66%30.07 "HgN/A
12:30 pm79 °FSunny.17 mph70%30.07 "Hg10 mi
12:00 pm81 °FSunny.14 mph66%30.07 "Hg10 mi
11:30 am77 °FSunny.16 mph74%30.09 "Hg10 mi
11:00 am77 °FPassing clouds.17 mph74%30.09 "HgN/A
10:30 am77 °FPartly sunny.9 mph79%30.09 "HgN/A
10:00 am73 °FPartly sunny.6 mph89%30.09 "HgN/A
9:30 am75 °FSunny.10 mph78%30.07 "Hg10 mi
9:00 am75 °FPassing clouds.5 mph69%30.04 "HgN/A
8:30 am72 °FPassing clouds.3 mph88%30.04 "HgN/A
8:00 am72 °FSunny.5 mph88%30.04 "Hg10 mi
7:30 am72 °FSunny.2 mph88%30.04 "Hg10 mi
7:00 am72 °FPassing clouds.6 mph88%30.04 "HgN/A
6:30 am72 °FClear.8 mph88%30.04 "Hg10 mi
6:00 am72 °FClear.13 mph88%30.04 "Hg10 mi
5:30 am72 °FClear.6 mph88%30.04 "Hg10 mi
5:00 am72 °FClear.6 mph88%30.04 "Hg10 mi
4:30 am72 °FClear.3 mph88%30.04 "Hg10 mi
4:00 am72 °FPassing clouds.6 mph88%30.04 "HgN/A
3:30 am72 °FPassing clouds.5 mph88%30.04 "HgN/A
3:00 am72 °FPassing clouds.7 mph88%30.04 "HgN/A
2:00 am73 °FPassing clouds.7 mph83%30.04 "HgN/A
1:30 am73 °FClear.5 mph83%30.04 "Hg10 mi
1:00 am73 °FClear.2 mph78%30.04 "Hg10 mi
12:30 am73 °FClear.1 mph83%30.04 "Hg10 mi
12:00 am73 °FPassing clouds.5 mph83%30.04 "HgN/A
11:30 pm
Tue, Jul 23
73 °FPassing clouds.3 mph83%30.04 "HgN/A
11:00 pm73 °FClear.2 mph83%30.04 "Hg10 mi
10:30 pm75 °FPassing clouds.5 mph74%30.04 "HgN/A
10:00 pm73 °FPassing clouds.3 mph83%30.04 "HgN/A
9:30 pm75 °FClear.5 mph78%30.04 "Hg10 mi
9:00 pm75 °FPassing clouds.7 mph78%30.01 "HgN/A
8:00 pm77 °FPassing clouds.9 mph74%30.01 "HgN/A
7:30 pm79 °FPassing clouds.9 mph65%29.98 "HgN/A
7:00 pm81 °FPassing clouds.10 mph66%29.98 "HgN/A
Weather by CustomWeather, © 2024

See weather overview